createdAt,value
2019-05-23T00:00:20.010Z,64.59
2019-05-23T00:01:14.260Z,64.12
2019-05-23T00:02:03.797Z,64.12
2019-05-23T00:02:48.092Z,64.75
2019-05-23T00:03:27.371Z,64.72
2019-05-23T00:04:18.335Z,64.77
2019-05-23T00:05:17.637Z,65.05
2019-05-23T00:06:04.314Z,65.05
2019-05-23T00:06:40.991Z,64.97
2019-05-23T00:07:19.662Z,64.92
2019-05-23T00:07:55.956Z,64.85
2019-05-23T00:08:32.909Z,64.72
2019-05-23T00:09:10.392Z,64.83
2019-05-23T00:09:47.699Z,64.68
2019-05-23T00:10:39.031Z,64.68
2019-05-23T00:11:33.594Z,64.26
2019-05-23T00:12:32.845Z,64.74
2019-05-23T00:13:15.991Z,64.74
2019-05-23T00:14:00.866Z,64.79
2019-05-23T00:14:44.705Z,64.72
2019-05-23T00:15:28.318Z,64.47
2019-05-23T00:16:07.275Z,64.56
2019-05-23T00:16:44.002Z,63.87
2019-05-23T00:17:21.096Z,63.87
2019-05-23T00:17:57.746Z,63.96
2019-05-23T00:18:36.356Z,64.04
2019-05-23T00:19:13.814Z,64.16
2019-05-23T00:19:51.763Z,63.97
2019-05-23T00:20:28.963Z,63.77
2019-05-23T00:21:05.324Z,63.33
2019-05-23T00:21:42.965Z,63.45
2019-05-23T00:22:20.796Z,63.37
2019-05-23T00:22:57.461Z,62.79
2019-05-23T00:23:33.547Z,62.80
2019-05-23T00:24:11.517Z,63.20
2019-05-23T00:24:48.341Z,63.48
2019-05-23T00:25:25.410Z,63.30
2019-05-23T00:26:03.804Z,63.45
2019-05-23T00:26:41.788Z,63.54
2019-05-23T00:27:18.352Z,63.20
2019-05-23T00:27:56.141Z,63.20
2019-05-23T00:28:32.075Z,63.45
2019-05-23T00:29:10.682Z,63.05
2019-05-23T00:29:48.399Z,63.15
2019-05-23T00:30:40.259Z,63.15
2019-05-23T00:31:21.554Z,63.47
2019-05-23T00:32:05.366Z,63.73
2019-05-23T00:32:53.464Z,63.81
2019-05-23T00:33:31.114Z,63.81
2019-05-23T00:34:08.337Z,63.95
2019-05-23T00:34:45.435Z,64.54
2019-05-23T00:35:21.509Z,64.73
2019-05-23T00:35:59.846Z,64.66
2019-05-23T00:36:35.644Z,64.63
2019-05-23T00:37:14.792Z,64.00
2019-05-23T00:37:52.588Z,64.00
2019-05-23T00:38:28.435Z,64.65
2019-05-23T00:39:07.528Z,64.72
2019-05-23T00:39:46.787Z,64.68
2019-05-23T00:40:23.240Z,64.86
2019-05-23T00:41:00.422Z,64.64
2019-05-23T00:41:37.708Z,64.55
2019-05-23T00:42:13.924Z,64.67
2019-05-23T00:42:52.575Z,64.65
2019-05-23T00:43:30.185Z,64.77
2019-05-23T00:44:06.233Z,64.92
2019-05-23T00:44:43.524Z,65.11
2019-05-23T00:45:21.751Z,65.19
2019-05-23T00:45:57.947Z,65.25
2019-05-23T00:46:34.866Z,64.57
2019-05-23T00:47:11.613Z,64.44
2019-05-23T00:47:49.088Z,64.44
2019-05-23T00:48:25.587Z,64.56
2019-05-23T00:49:03.573Z,64.55
2019-05-23T00:49:39.576Z,64.52
2019-05-23T00:50:18.869Z,64.83
2019-05-23T00:50:54.993Z,64.83
2019-05-23T00:51:31.772Z,64.80
2019-05-23T00:52:09.010Z,64.93
2019-05-23T00:52:45.208Z,64.83
2019-05-23T00:53:20.733Z,64.83
2019-05-23T00:53:57.630Z,65.20
2019-05-23T00:54:35.177Z,65.05
2019-05-23T00:55:12.788Z,64.83
2019-05-23T00:55:49.522Z,65.10
2019-05-23T00:56:26.841Z,65.10
2019-05-23T00:57:03.593Z,64.37
2019-05-23T00:57:42.551Z,64.28
2019-05-23T00:58:19.843Z,64.33
2019-05-23T00:58:56.298Z,64.14
2019-05-23T00:59:33.498Z,64.33
2019-05-23T01:00:11.683Z,64.36
2019-05-23T01:00:49.438Z,63.66
2019-05-23T01:01:26.296Z,63.71
2019-05-23T01:02:03.047Z,64.07
2019-05-23T01:02:39.153Z,63.90
2019-05-23T01:03:17.405Z,63.89
2019-05-23T01:03:55.438Z,64.16
2019-05-23T01:04:31.593Z,63.84
2019-05-23T01:05:10.910Z,64.10
2019-05-23T01:05:47.638Z,64.18
2019-05-23T01:06:23.974Z,64.45
2019-05-23T01:07:00.043Z,64.45
2019-05-23T01:07:36.457Z,64.62
2019-05-23T01:08:12.415Z,64.35
2019-05-23T01:08:49.572Z,64.09
2019-05-23T01:09:28.088Z,64.25
2019-05-23T01:10:05.734Z,64.41
2019-05-23T01:10:42.683Z,64.55
2019-05-23T01:11:19.760Z,64.48
2019-05-23T01:11:55.371Z,64.46
2019-05-23T01:12:31.611Z,64.46
2019-05-23T01:13:09.205Z,64.17
2019-05-23T01:13:46.061Z,64.23
2019-05-23T01:14:22.866Z,63.95
2019-05-23T01:14:59.417Z,63.98
2019-05-23T01:15:36.002Z,63.89
2019-05-23T01:16:14.649Z,63.77
2019-05-23T01:16:51.757Z,63.79
2019-05-23T01:17:29.126Z,63.96
2019-05-23T01:18:06.102Z,64.09
2019-05-23T01:18:42.824Z,63.69
2019-05-23T01:19:19.221Z,63.70
2019-05-23T01:19:56.982Z,63.77
2019-05-23T01:20:51.724Z,63.63
2019-05-23T01:21:37.771Z,63.67
2019-05-23T01:22:15.498Z,63.68
2019-05-23T01:22:53.805Z,63.68
2019-05-23T01:23:32.243Z,63.68
2019-05-23T01:24:14.789Z,63.54
2019-05-23T01:24:55.450Z,63.52
2019-05-23T01:25:33.173Z,63.56
2019-05-23T01:26:10.840Z,63.36
2019-05-23T01:26:48.662Z,63.32
2019-05-23T01:27:25.126Z,63.48
2019-05-23T01:28:01.741Z,63.21
2019-05-23T01:28:38.064Z,63.05
2019-05-23T01:29:14.701Z,63.51
2019-05-23T01:29:51.789Z,63.51
2019-05-23T01:30:31.677Z,63.58
2019-05-23T01:31:11.086Z,63.62
2019-05-23T01:31:48.665Z,63.66
2019-05-23T01:32:32.051Z,63.66
2019-05-23T01:33:07.806Z,63.86
2019-05-23T01:33:44.310Z,63.87
2019-05-23T01:34:22.625Z,64.33
2019-05-23T01:34:59.026Z,64.33
2019-05-23T01:35:36.556Z,64.21
2019-05-23T01:36:13.292Z,63.75
2019-05-23T01:36:49.717Z,63.95
2019-05-23T01:37:27.140Z,63.70
2019-05-23T01:38:04.302Z,63.70
2019-05-23T01:38:40.577Z,63.96
2019-05-23T01:39:17.502Z,64.23
2019-05-23T01:39:54.431Z,64.21
2019-05-23T01:40:31.190Z,63.96
2019-05-23T01:41:07.351Z,63.96
2019-05-23T01:41:44.391Z,63.90
2019-05-23T01:42:20.661Z,63.90
2019-05-23T01:42:57.691Z,63.56
2019-05-23T01:43:33.964Z,63.96
2019-05-23T01:44:10.338Z,64.32
2019-05-23T01:44:48.152Z,64.32
2019-05-23T01:45:24.775Z,64.32
2019-05-23T01:46:00.820Z,64.47
2019-05-23T01:46:37.210Z,64.59
2019-05-23T01:47:15.205Z,64.50
2019-05-23T01:47:52.272Z,64.10
2019-05-23T01:48:29.989Z,64.10
2019-05-23T01:49:06.690Z,63.97
2019-05-23T01:49:42.708Z,64.08
2019-05-23T01:50:21.185Z,64.08
2019-05-23T01:50:58.253Z,64.26
2019-05-23T01:51:34.509Z,64.47
2019-05-23T01:52:12.537Z,64.61
2019-05-23T01:52:49.827Z,64.71
2019-05-23T01:53:26.372Z,64.65
2019-05-23T01:54:03.507Z,64.57
2019-05-23T01:54:39.621Z,64.51
2019-05-23T01:55:15.897Z,64.31
2019-05-23T01:55:52.283Z,64.33
2019-05-23T01:56:29.363Z,64.61
2019-05-23T01:57:05.520Z,64.48
2019-05-23T01:57:41.784Z,64.60
2019-05-23T01:58:18.168Z,64.48
2019-05-23T01:58:54.048Z,64.32
2019-05-23T01:59:30.705Z,64.53
2019-05-23T02:00:11.377Z,64.75
2019-05-23T02:00:47.807Z,64.99
2019-05-23T02:01:24.451Z,64.99
2019-05-23T02:02:00.509Z,64.81
2019-05-23T02:02:38.368Z,64.91
2019-05-23T02:03:15.681Z,64.70
2019-05-23T02:03:53.244Z,64.93
2019-05-23T02:04:28.735Z,65.19
2019-05-23T02:05:05.127Z,65.19
2019-05-23T02:05:42.526Z,65.09
2019-05-23T02:06:18.034Z,65.21
2019-05-23T02:06:54.978Z,65.21
2019-05-23T02:07:31.967Z,65.43
2019-05-23T02:08:10.817Z,65.82
2019-05-23T02:08:47.383Z,65.82
2019-05-23T02:09:24.018Z,65.89
2019-05-23T02:09:59.540Z,65.83
2019-05-23T02:10:35.927Z,65.98
2019-05-23T02:11:13.046Z,65.73
2019-05-23T02:11:49.254Z,65.67
2019-05-23T02:12:26.532Z,65.51
2019-05-23T02:13:02.838Z,65.59
2019-05-23T02:13:39.714Z,66.26
2019-05-23T02:14:17.195Z,66.26
2019-05-23T02:14:53.928Z,66.20
2019-05-23T02:15:29.554Z,66.28
2019-05-23T02:16:05.732Z,66.53
2019-05-23T02:16:42.951Z,66.40
2019-05-23T02:17:19.650Z,66.40
2019-05-23T02:17:57.555Z,66.62
2019-05-23T02:18:33.992Z,66.91
2019-05-23T02:19:13.651Z,66.91
2019-05-23T02:19:49.974Z,66.97
2019-05-23T02:20:26.064Z,67.27
2019-05-23T02:21:02.151Z,67.19
2019-05-23T02:21:38.277Z,67.40
2019-05-23T02:22:14.934Z,67.53
2019-05-23T02:22:51.768Z,67.70
2019-05-23T02:23:28.901Z,67.67
2019-05-23T02:24:05.912Z,67.66
2019-05-23T02:24:42.294Z,67.62
2019-05-23T02:25:22.025Z,67.81
2019-05-23T02:26:00.010Z,68.01
2019-05-23T02:26:37.451Z,68.18
2019-05-23T02:27:15.587Z,68.32
2019-05-23T02:27:53.973Z,68.49
2019-05-23T02:28:31.667Z,68.52
2019-05-23T02:29:08.742Z,68.66
2019-05-23T02:29:45.327Z,68.69
2019-05-23T02:30:33.706Z,68.80
2019-05-23T02:31:00.708Z,68.89
2019-05-23T02:31:36.809Z,69.01
2019-05-23T02:32:13.401Z,69.07
2019-05-23T02:32:50.724Z,69.19
2019-05-23T02:33:26.856Z,69.31
2019-05-23T02:34:02.564Z,69.28
2019-05-23T02:34:39.556Z,69.39
2019-05-23T02:35:17.898Z,69.53
2019-05-23T02:35:53.583Z,69.50
2019-05-23T02:36:30.983Z,69.45
2019-05-23T02:37:12.244Z,69.78
2019-05-23T02:38:06.284Z,69.78
2019-05-23T02:38:59.773Z,69.80
2019-05-23T02:40:03.941Z,69.60
2019-05-23T02:40:46.690Z,69.67
2019-05-23T02:41:46.085Z,69.79
2019-05-23T02:42:41.094Z,69.75
2019-05-23T02:43:19.454Z,69.84
2019-05-23T02:44:00.570Z,69.93
2019-05-23T02:44:36.954Z,70.19
2019-05-23T02:45:18.877Z,70.19
2019-05-23T02:45:59.132Z,70.08
2019-05-23T02:46:43.079Z,70.02
2019-05-23T02:47:38.292Z,69.66
2019-05-23T02:48:22.511Z,70.06
2019-05-23T02:49:03.033Z,70.06
2019-05-23T02:49:41.263Z,69.24
2019-05-23T02:50:26.941Z,69.07
2019-05-23T02:51:07.094Z,69.39
2019-05-23T02:51:44.216Z,69.46
2019-05-23T02:52:40.904Z,69.40
2019-05-23T02:53:20.949Z,69.48
2019-05-23T02:53:59.224Z,69.51
2019-05-23T02:54:37.381Z,69.53
2019-05-23T02:55:27.906Z,69.59
2019-05-23T02:56:08.156Z,69.66
2019-05-23T02:56:46.868Z,69.72
2019-05-23T02:57:25.412Z,69.79
2019-05-23T02:58:07.128Z,69.80
2019-05-23T02:58:56.711Z,70.00
2019-05-23T02:59:41.230Z,70.15
2019-05-23T03:01:00.277Z,70.22
2019-05-23T03:02:14.891Z,70.37
2019-05-23T03:02:58.686Z,70.38
2019-05-23T03:03:37.663Z,70.62
2019-05-23T03:04:18.323Z,70.70
2019-05-23T03:04:54.372Z,70.77
2019-05-23T03:05:31.534Z,70.76
2019-05-23T03:06:12.897Z,70.76
2019-05-23T03:06:49.872Z,71.03
2019-05-23T03:07:29.961Z,70.92
2019-05-23T03:08:08.673Z,70.92
2019-05-23T03:08:45.503Z,70.86
2019-05-23T03:09:24.143Z,71.06
2019-05-23T03:09:59.794Z,71.16
2019-05-23T03:10:57.034Z,71.22
2019-05-23T03:11:40.397Z,71.39
2019-05-23T03:12:18.472Z,71.29
2019-05-23T03:12:56.395Z,71.39
2019-05-23T03:13:34.917Z,71.45
2019-05-23T03:14:11.577Z,71.70
2019-05-23T03:14:49.512Z,71.82
2019-05-23T03:15:28.798Z,71.88
2019-05-23T03:16:06.331Z,71.75
2019-05-23T03:16:45.138Z,71.66
2019-05-23T03:17:25.818Z,71.73
2019-05-23T03:18:04.063Z,71.51
2019-05-23T03:18:43.228Z,71.50
2019-05-23T03:19:29.730Z,71.60
2019-05-23T03:20:08.578Z,71.70
2019-05-23T03:20:45.282Z,71.65
2019-05-23T03:21:21.809Z,71.69
2019-05-23T03:22:01.231Z,71.80
2019-05-23T03:22:49.273Z,71.82
2019-05-23T03:23:25.684Z,71.64
2019-05-23T03:24:01.693Z,71.68
2019-05-23T03:24:37.798Z,71.81
2019-05-23T03:26:01.881Z,71.96
2019-05-23T03:27:01.927Z,72.01
2019-05-23T03:27:42.344Z,72.35
2019-05-23T03:28:21.407Z,72.43
2019-05-23T03:28:58.761Z,72.31
2019-05-23T03:29:35.524Z,72.37
2019-05-23T03:30:16.729Z,72.65
2019-05-23T03:31:21.859Z,72.80
2019-05-23T03:31:42.971Z,72.99
2019-05-23T03:32:39.871Z,73.12
2019-05-23T03:33:17.009Z,73.04
2019-05-23T03:33:53.144Z,73.08
2019-05-23T03:34:31.606Z,72.93
2019-05-23T03:35:15.848Z,72.83
2019-05-23T03:35:53.944Z,72.87
2019-05-23T03:36:31.337Z,72.77
2019-05-23T03:37:07.792Z,73.06
2019-05-23T03:37:44.092Z,73.14
2019-05-23T03:38:20.836Z,73.09
2019-05-23T03:38:57.570Z,73.20
2019-05-23T03:39:35.102Z,73.27
2019-05-23T03:40:12.540Z,73.17
2019-05-23T03:40:49.490Z,73.22
2019-05-23T03:41:25.560Z,73.26
2019-05-23T03:42:02.261Z,73.29
2019-05-23T03:42:39.141Z,73.34
2019-05-23T03:43:17.411Z,73.22
2019-05-23T03:43:54.392Z,73.05
2019-05-23T03:44:31.381Z,73.12
2019-05-23T03:45:09.668Z,73.03
2019-05-23T03:45:50.835Z,73.07
2019-05-23T03:46:29.123Z,73.08
2019-05-23T03:47:07.449Z,73.08
2019-05-23T03:47:46.465Z,72.95
2019-05-23T03:48:24.601Z,72.93
2019-05-23T03:49:00.679Z,73.01
2019-05-23T03:49:37.441Z,73.04
2019-05-23T03:50:15.006Z,73.07
2019-05-23T03:50:52.329Z,73.01
2019-05-23T03:51:29.289Z,73.01
2019-05-23T03:52:06.354Z,72.88
2019-05-23T03:52:42.730Z,72.71
2019-05-23T03:53:19.688Z,72.52
2019-05-23T03:53:56.938Z,72.71
2019-05-23T03:54:32.906Z,72.72
2019-05-23T03:55:09.550Z,72.77
2019-05-23T03:55:48.593Z,72.89
2019-05-23T03:56:25.098Z,72.86
2019-05-23T03:57:01.677Z,72.77
2019-05-23T03:57:38.347Z,72.62
2019-05-23T03:58:14.295Z,72.48
2019-05-23T03:58:51.397Z,72.49
2019-05-23T03:59:28.565Z,72.49
2019-05-23T04:00:06.348Z,72.63
2019-05-23T04:00:57.185Z,72.58
2019-05-23T04:01:46.754Z,72.42
2019-05-23T04:02:15.928Z,72.36
2019-05-23T04:02:52.066Z,72.29
2019-05-23T04:03:30.245Z,72.31
2019-05-23T04:04:06.330Z,72.37
2019-05-23T04:04:43.427Z,72.37
2019-05-23T04:05:20.639Z,72.50
2019-05-23T04:05:57.507Z,72.50
2019-05-23T04:06:34.966Z,72.51
2019-05-23T04:07:11.991Z,72.45
2019-05-23T04:07:48.612Z,72.34
2019-05-23T04:08:25.123Z,72.35
2019-05-23T04:09:02.506Z,72.19
2019-05-23T04:09:38.402Z,72.04
2019-05-23T04:10:14.864Z,71.77
2019-05-23T04:10:52.260Z,71.77
2019-05-23T04:11:28.376Z,71.79
2019-05-23T04:12:05.283Z,71.79
2019-05-23T04:12:42.735Z,71.97
2019-05-23T04:13:18.816Z,71.97
2019-05-23T04:13:56.112Z,71.97
2019-05-23T04:14:32.255Z,71.99
2019-05-23T04:15:09.388Z,72.01
2019-05-23T04:15:45.540Z,72.00
2019-05-23T04:16:22.648Z,72.23
2019-05-23T04:16:58.527Z,72.23
2019-05-23T04:17:35.371Z,71.74
2019-05-23T04:18:12.216Z,71.71
2019-05-23T04:18:48.535Z,71.58
2019-05-23T04:19:25.088Z,71.49
2019-05-23T04:20:01.636Z,71.42
2019-05-23T04:20:37.440Z,71.42
2019-05-23T04:21:14.785Z,71.40
2019-05-23T04:21:51.940Z,71.45
2019-05-23T04:22:28.859Z,71.44
2019-05-23T04:23:06.343Z,71.53
2019-05-23T04:23:43.107Z,71.38
2019-05-23T04:24:19.191Z,71.09
2019-05-23T04:24:55.778Z,71.09
2019-05-23T04:25:32.083Z,71.29
2019-05-23T04:26:08.143Z,71.42
2019-05-23T04:26:44.564Z,71.47
2019-05-23T04:27:21.290Z,71.81
2019-05-23T04:27:57.457Z,71.67
2019-05-23T04:28:33.741Z,71.48
2019-05-23T04:29:11.144Z,71.50
2019-05-23T04:29:47.736Z,71.14
2019-05-23T04:30:23.778Z,70.90
2019-05-23T04:30:59.926Z,70.75
2019-05-23T04:31:36.410Z,70.49
2019-05-23T04:32:12.895Z,70.15
2019-05-23T04:32:49.583Z,70.18
2019-05-23T04:33:25.546Z,70.32
2019-05-23T04:34:02.059Z,70.61
2019-05-23T04:34:38.375Z,70.43
2019-05-23T04:35:14.093Z,70.53
2019-05-23T04:35:50.374Z,70.53
2019-05-23T04:36:26.517Z,70.48
2019-05-23T04:37:02.419Z,70.48
2019-05-23T04:37:38.744Z,70.25
2019-05-23T04:38:16.197Z,70.18
2019-05-23T04:38:51.894Z,70.22
2019-05-23T04:39:29.013Z,70.12
2019-05-23T04:40:06.248Z,69.94
2019-05-23T04:40:41.794Z,69.72
2019-05-23T04:41:18.194Z,69.72
2019-05-23T04:41:54.729Z,69.76
2019-05-23T04:42:30.790Z,69.83
2019-05-23T04:43:07.021Z,69.75
2019-05-23T04:43:43.737Z,69.80
2019-05-23T04:44:19.378Z,69.59
2019-05-23T04:44:55.416Z,69.86
2019-05-23T04:45:33.413Z,69.55
2019-05-23T04:46:09.895Z,69.50
2019-05-23T04:46:46.825Z,69.68
2019-05-23T04:47:24.164Z,69.50
2019-05-23T04:48:00.676Z,69.54
2019-05-23T04:48:37.273Z,69.66
2019-05-23T04:49:14.353Z,69.44
2019-05-23T04:49:50.511Z,68.83
2019-05-23T04:50:28.130Z,68.68
2019-05-23T04:51:06.236Z,68.50
2019-05-23T04:51:42.530Z,68.42
2019-05-23T04:52:19.167Z,68.58
2019-05-23T04:52:55.688Z,68.20
2019-05-23T04:53:32.561Z,67.48
2019-05-23T04:54:08.754Z,67.37
2019-05-23T04:54:45.743Z,67.37
2019-05-23T04:55:22.489Z,67.37
2019-05-23T04:55:59.318Z,67.10
2019-05-23T04:56:36.622Z,67.03
2019-05-23T04:57:14.934Z,67.17
2019-05-23T04:57:52.712Z,67.17
2019-05-23T04:58:29.806Z,67.12
2019-05-23T04:59:05.400Z,67.12
2019-05-23T04:59:41.759Z,67.06
2019-05-23T05:00:19.198Z,66.94
2019-05-23T05:00:54.734Z,66.58
2019-05-23T05:01:32.562Z,66.57
2019-05-23T05:02:24.707Z,66.71
2019-05-23T05:02:47.951Z,66.18
2019-05-23T05:03:24.928Z,66.11
2019-05-23T05:04:01.967Z,65.92
2019-05-23T05:04:38.023Z,65.70
2019-05-23T05:05:15.477Z,65.70
2019-05-23T05:05:51.862Z,65.79
2019-05-23T05:06:27.799Z,66.22
2019-05-23T05:07:05.013Z,66.22
2019-05-23T05:07:41.784Z,66.12
2019-05-23T05:08:18.171Z,66.06
2019-05-23T05:08:55.400Z,66.06
2019-05-23T05:09:33.700Z,65.48
2019-05-23T05:10:12.044Z,64.68
2019-05-23T05:10:50.091Z,64.68
2019-05-23T05:11:30.200Z,64.49
2019-05-23T05:12:05.988Z,65.02
2019-05-23T05:12:42.481Z,65.17
2019-05-23T05:13:19.002Z,65.10
2019-05-23T05:13:55.293Z,65.48
2019-05-23T05:14:31.936Z,65.48
2019-05-23T05:15:09.016Z,65.92
2019-05-23T05:15:45.145Z,65.92
2019-05-23T05:16:21.295Z,66.34
2019-05-23T05:16:58.149Z,66.46
2019-05-23T05:17:34.165Z,66.59
2019-05-23T05:18:11.778Z,66.64
2019-05-23T05:18:48.364Z,66.71
2019-05-23T05:19:24.799Z,66.67
2019-05-23T05:20:01.560Z,66.66
2019-05-23T05:20:37.607Z,66.37
2019-05-23T05:21:13.561Z,66.37
2019-05-23T05:21:49.738Z,66.55
2019-05-23T05:22:26.765Z,66.55
2019-05-23T05:23:02.792Z,66.65
2019-05-23T05:23:39.663Z,66.53
2019-05-23T05:24:16.270Z,66.53
2019-05-23T05:24:52.271Z,66.45
2019-05-23T05:25:29.856Z,66.29
2019-05-23T05:26:08.167Z,65.98
2019-05-23T05:26:43.785Z,66.23
2019-05-23T05:27:20.800Z,66.05
2019-05-23T05:27:57.455Z,66.39
2019-05-23T05:28:33.549Z,66.53
2019-05-23T05:29:10.478Z,66.51
2019-05-23T05:29:47.109Z,66.51
2019-05-23T05:30:23.033Z,65.45
2019-05-23T05:30:59.212Z,65.90
2019-05-23T05:31:35.999Z,65.90
2019-05-23T05:32:13.481Z,65.74
2019-05-23T05:32:50.348Z,65.74
2019-05-23T05:33:26.523Z,65.91
2019-05-23T05:34:02.060Z,66.20
2019-05-23T05:34:38.488Z,66.20
2019-05-23T05:35:15.418Z,66.03
2019-05-23T05:35:51.144Z,66.03
2019-05-23T05:36:27.190Z,66.08
2019-05-23T05:37:03.584Z,66.20
2019-05-23T05:37:39.187Z,65.91
2019-05-23T05:38:16.059Z,65.91
2019-05-23T05:38:52.763Z,65.83
2019-05-23T05:39:28.615Z,65.79
2019-05-23T05:40:06.925Z,66.25
2019-05-23T05:40:43.419Z,66.17
2019-05-23T05:41:20.764Z,66.13
2019-05-23T05:41:57.900Z,66.32
2019-05-23T05:42:34.642Z,66.32
2019-05-23T05:43:10.750Z,66.09
2019-05-23T05:43:47.762Z,65.93
2019-05-23T05:44:24.025Z,65.93
2019-05-23T05:45:00.641Z,65.64
2019-05-23T05:45:36.933Z,65.28
2019-05-23T05:46:13.321Z,65.28
2019-05-23T05:46:48.885Z,65.31
2019-05-23T05:47:25.432Z,64.58
2019-05-23T05:48:01.958Z,64.75
2019-05-23T05:48:37.848Z,64.87
2019-05-23T05:49:15.053Z,64.50
2019-05-23T05:49:51.893Z,64.69
2019-05-23T05:50:27.682Z,64.31
2019-05-23T05:51:05.948Z,64.58
2019-05-23T05:51:42.434Z,64.98
2019-05-23T05:52:20.498Z,65.03
2019-05-23T05:52:56.829Z,65.47
2019-05-23T05:53:33.412Z,65.47
2019-05-23T05:54:09.818Z,64.87
2019-05-23T05:54:46.384Z,64.84
2019-05-23T05:55:22.940Z,64.84
2019-05-23T05:55:58.445Z,65.32
2019-05-23T05:56:35.013Z,65.50
2019-05-23T05:57:11.381Z,64.99
2019-05-23T05:57:47.306Z,64.51
2019-05-23T05:58:24.060Z,64.79
2019-05-23T05:59:00.227Z,65.23
2019-05-23T05:59:36.357Z,65.52
2019-05-23T06:00:31.385Z,65.59
2019-05-23T06:01:10.810Z,65.59
2019-05-23T06:01:47.614Z,65.56
2019-05-23T06:02:23.995Z,65.38
2019-05-23T06:03:05.003Z,65.65
2019-05-23T06:03:38.448Z,65.65
2019-05-23T06:04:14.819Z,65.90
2019-05-23T06:04:51.274Z,65.45
2019-05-23T06:05:35.575Z,65.45
2019-05-23T06:06:17.926Z,65.74
2019-05-23T06:07:27.877Z,65.76
2019-05-23T06:08:04.792Z,65.61
2019-05-23T06:08:42.825Z,65.48
2019-05-23T06:09:26.099Z,65.82
2019-05-23T06:10:03.649Z,65.26
2019-05-23T06:10:40.536Z,65.26
2019-05-23T06:11:16.846Z,65.55
2019-05-23T06:11:52.852Z,65.32
2019-05-23T06:12:29.239Z,65.23
2019-05-23T06:13:07.008Z,65.07
2019-05-23T06:13:43.013Z,65.07
2019-05-23T06:14:19.703Z,65.18
2019-05-23T06:14:55.873Z,65.72
2019-05-23T06:15:33.684Z,65.75
2019-05-23T06:16:11.019Z,65.84
2019-05-23T06:16:47.714Z,66.19
2019-05-23T06:17:23.268Z,65.42
2019-05-23T06:17:59.681Z,65.38
2019-05-23T06:18:36.116Z,65.00
2019-05-23T06:19:12.008Z,65.00
2019-05-23T06:19:48.333Z,65.43
2019-05-23T06:20:24.499Z,65.60
2019-05-23T06:21:01.877Z,65.43
2019-05-23T06:21:39.021Z,65.41
2019-05-23T06:22:15.925Z,64.90
2019-05-23T06:22:52.802Z,65.49
2019-05-23T06:23:30.371Z,65.88
2019-05-23T06:24:07.410Z,65.49
2019-05-23T06:24:49.148Z,65.45
2019-05-23T06:25:22.334Z,65.71
2019-05-23T06:25:58.502Z,65.84
2019-05-23T06:26:34.138Z,66.09
2019-05-23T06:27:13.271Z,66.08
2019-05-23T06:27:49.493Z,65.98
2019-05-23T06:28:25.446Z,65.62
2019-05-23T06:29:01.507Z,65.62
2019-05-23T06:29:38.203Z,65.79
2019-05-23T06:30:16.724Z,65.62
2019-05-23T06:30:52.798Z,65.41
2019-05-23T06:31:29.659Z,64.90
2019-05-23T06:32:08.299Z,64.73
2019-05-23T06:32:44.529Z,64.51
2019-05-23T06:33:23.959Z,64.32
2019-05-23T06:33:58.728Z,64.64
2019-05-23T06:34:35.848Z,64.29
2019-05-23T06:35:12.965Z,64.43
2019-05-23T06:35:48.993Z,64.07
2019-05-23T06:36:25.813Z,64.07
2019-05-23T06:37:02.545Z,64.72
2019-05-23T06:37:38.466Z,64.72
2019-05-23T06:38:14.790Z,64.45
2019-05-23T06:38:51.635Z,64.37
2019-05-23T06:39:27.133Z,63.83
2019-05-23T06:40:03.764Z,63.87
2019-05-23T06:40:40.777Z,63.65
2019-05-23T06:41:18.624Z,63.12
2019-05-23T06:41:55.231Z,62.93
2019-05-23T06:42:31.724Z,62.93
2019-05-23T06:43:07.720Z,62.72
2019-05-23T06:43:44.880Z,62.95
2019-05-23T06:44:21.633Z,62.96
2019-05-23T06:44:58.294Z,63.04
2019-05-23T06:45:34.602Z,63.16
2019-05-23T06:46:10.762Z,62.85
2019-05-23T06:46:46.274Z,62.83
2019-05-23T06:47:23.272Z,63.14
2019-05-23T06:48:00.330Z,63.27
2019-05-23T06:48:36.248Z,63.02
2019-05-23T06:49:13.185Z,62.77
2019-05-23T06:49:50.424Z,62.90
2019-05-23T06:50:26.062Z,63.00
2019-05-23T06:51:02.543Z,62.60
2019-05-23T06:51:38.849Z,62.20
2019-05-23T06:52:15.028Z,62.33
2019-05-23T06:52:52.203Z,62.75
2019-05-23T06:53:28.334Z,63.07
2019-05-23T06:54:04.346Z,63.12
2019-05-23T06:54:41.327Z,62.95
2019-05-23T06:55:17.798Z,62.38
2019-05-23T06:55:53.309Z,61.87
2019-05-23T06:56:29.612Z,61.85
2019-05-23T06:57:05.709Z,61.61
2019-05-23T06:57:42.895Z,61.79
2019-05-23T06:58:20.053Z,62.30
2019-05-23T06:58:57.176Z,62.47
2019-05-23T06:59:32.735Z,62.12
2019-05-23T07:00:09.257Z,61.59
2019-05-23T07:00:45.715Z,61.31
2019-05-23T07:01:21.407Z,61.38
2019-05-23T07:01:58.247Z,61.87
2019-05-23T07:02:35.160Z,61.98
2019-05-23T07:03:13.069Z,62.70
2019-05-23T07:03:50.670Z,62.79
2019-05-23T07:04:27.279Z,62.30
2019-05-23T07:05:02.821Z,62.19
2019-05-23T07:05:39.914Z,62.12
2019-05-23T07:06:19.195Z,61.77
2019-05-23T07:06:55.482Z,61.41
2019-05-23T07:07:33.091Z,61.44
2019-05-23T07:08:09.283Z,61.32
2019-05-23T07:08:45.015Z,60.79
2019-05-23T07:09:22.024Z,60.15
2019-05-23T07:09:58.617Z,60.62
2019-05-23T07:10:34.930Z,61.05
2019-05-23T07:11:11.256Z,60.96
2019-05-23T07:11:48.560Z,61.11
2019-05-23T07:12:24.033Z,60.97
2019-05-23T07:13:00.377Z,60.55
2019-05-23T07:13:37.542Z,60.39
2019-05-23T07:14:13.328Z,60.45
2019-05-23T07:14:49.852Z,60.30
2019-05-23T07:15:27.617Z,60.34
2019-05-23T07:16:05.024Z,60.48
2019-05-23T07:16:41.295Z,60.29
2019-05-23T07:17:20.240Z,59.98
2019-05-23T07:17:56.622Z,59.58
2019-05-23T07:18:33.312Z,59.41
2019-05-23T07:19:10.552Z,59.76
2019-05-23T07:19:47.678Z,60.06
2019-05-23T07:20:24.181Z,59.75
2019-05-23T07:21:00.983Z,59.70
2019-05-23T07:21:37.997Z,59.82
2019-05-23T07:22:18.359Z,60.04
2019-05-23T07:22:53.104Z,60.24
2019-05-23T07:23:29.684Z,60.36
2019-05-23T07:24:06.477Z,60.17
2019-05-23T07:24:57.287Z,60.12
2019-05-23T07:25:21.274Z,59.84
2019-05-23T07:25:58.142Z,59.70
2019-05-23T07:26:35.005Z,59.99
2019-05-23T07:27:10.755Z,60.19
2019-05-23T07:27:47.299Z,60.19
2019-05-23T07:28:24.460Z,59.98
2019-05-23T07:29:00.555Z,59.87
2019-05-23T07:29:37.465Z,59.79
2019-05-23T07:30:18.749Z,59.79
2019-05-23T07:30:55.177Z,59.63
2019-05-23T07:31:31.603Z,59.66
2019-05-23T07:32:09.318Z,59.84
2019-05-23T07:32:45.941Z,59.16
2019-05-23T07:33:22.514Z,59.51
2019-05-23T07:34:02.353Z,59.58
2019-05-23T07:34:36.865Z,59.28
2019-05-23T07:35:13.684Z,58.92
2019-05-23T07:35:50.165Z,58.42
2019-05-23T07:36:25.650Z,58.00
2019-05-23T07:37:02.533Z,57.97
2019-05-23T07:37:39.187Z,58.05
2019-05-23T07:38:15.706Z,58.09
2019-05-23T07:38:51.871Z,57.89
2019-05-23T07:39:28.993Z,57.40
2019-05-23T07:40:05.855Z,57.26
2019-05-23T07:40:43.073Z,57.83
2019-05-23T07:41:20.162Z,58.72
2019-05-23T07:41:55.646Z,58.58
2019-05-23T07:42:32.541Z,58.60
2019-05-23T07:43:09.004Z,58.34
2019-05-23T07:43:45.793Z,58.01
2019-05-23T07:44:23.183Z,58.10
2019-05-23T07:45:00.301Z,58.02
2019-05-23T07:45:41.776Z,58.43
2019-05-23T07:46:17.955Z,58.21
2019-05-23T07:46:54.671Z,57.89
2019-05-23T07:47:30.766Z,57.66
2019-05-23T07:48:07.490Z,57.05
2019-05-23T07:48:44.433Z,57.16
2019-05-23T07:49:20.829Z,57.26
2019-05-23T07:49:58.162Z,57.02
2019-05-23T07:50:34.923Z,56.89
2019-05-23T07:51:11.157Z,56.95
2019-05-23T07:51:48.359Z,57.12
2019-05-23T07:52:25.191Z,56.81
2019-05-23T07:53:02.361Z,56.79
2019-05-23T07:53:56.065Z,56.50
2019-05-23T07:54:40.907Z,56.09
2019-05-23T07:55:24.966Z,55.64
2019-05-23T07:56:02.211Z,55.68
2019-05-23T07:56:40.016Z,55.76
2019-05-23T07:57:16.343Z,55.66
2019-05-23T07:57:52.749Z,55.71
2019-05-23T07:58:30.188Z,55.47
2019-05-23T07:59:06.749Z,55.65
2019-05-23T07:59:43.527Z,55.65
2019-05-23T08:00:23.038Z,55.44
2019-05-23T08:01:00.539Z,55.96
2019-05-23T08:01:38.927Z,55.72
2019-05-23T08:02:27.913Z,54.96
2019-05-23T08:03:05.548Z,54.99
2019-05-23T08:03:42.519Z,55.50
2019-05-23T08:04:21.865Z,55.56
2019-05-23T08:04:57.036Z,55.76
2019-05-23T08:05:33.486Z,56.03
2019-05-23T08:06:10.682Z,56.60
2019-05-23T08:06:49.017Z,56.26
2019-05-23T08:07:27.053Z,56.47
2019-05-23T08:08:05.213Z,56.50
2019-05-23T08:08:42.042Z,56.37
2019-05-23T08:09:18.551Z,56.42
2019-05-23T08:09:56.116Z,56.11
2019-05-23T08:10:34.001Z,55.98